桃園國際機場 - 塔臺(二站)

METAR RCTP 181030Z 06015KT 9999 FEW015 BKN024 BKN035 14/11 Q1020 NOSIG RMK A3014=

站台狀態:Offline
最後更新:2020-01-18 19:00:02